createdAt,value
2018-04-29T00:00:38.716Z,98032.20
2018-04-29T00:03:06.906Z,98036.48
2018-04-29T00:05:35.046Z,98038.12
2018-04-29T00:08:03.181Z,98028.09
2018-04-29T00:10:31.377Z,98031.70
2018-04-29T00:12:59.550Z,98031.73
2018-04-29T00:15:27.712Z,98029.75
2018-04-29T00:17:55.832Z,98032.20
2018-04-29T00:20:23.981Z,98029.97
2018-04-29T00:22:52.105Z,98031.23
2018-04-29T00:25:20.405Z,98030.09
2018-04-29T00:27:48.689Z,98029.55
2018-04-29T00:30:16.838Z,98029.58
2018-04-29T00:32:45.046Z,98022.37
2018-04-29T00:35:13.197Z,98022.93
2018-04-29T00:37:41.320Z,98019.58
2018-04-29T00:40:09.453Z,98015.08
2018-04-29T00:42:37.589Z,98014.30
2018-04-29T00:45:05.797Z,98019.02
2018-04-29T00:47:33.914Z,98020.37
2018-04-29T00:50:02.082Z,98020.64
2018-04-29T00:52:30.239Z,98016.91
2018-04-29T00:54:58.384Z,98017.20
2018-04-29T00:57:26.522Z,98006.91
2018-04-29T00:59:54.651Z,98007.72
2018-04-29T01:02:22.808Z,98009.83
2018-04-29T01:04:50.948Z,98016.56
2018-04-29T01:07:19.096Z,98010.84
2018-04-29T01:09:47.260Z,98015.05
2018-04-29T01:12:15.405Z,98014.38
2018-04-29T01:14:43.540Z,98012.77
2018-04-29T01:17:11.689Z,98008.77
2018-04-29T01:19:39.814Z,98008.86
2018-04-29T01:22:07.944Z,98004.30
2018-04-29T01:24:36.074Z,98004.31
2018-04-29T01:27:04.204Z,98001.17
2018-04-29T01:29:32.355Z,98009.94
2018-04-29T01:32:00.506Z,98013.34
2018-04-29T01:34:28.623Z,98016.14
2018-04-29T01:36:56.769Z,98009.62
2018-04-29T01:39:24.902Z,98007.58
2018-04-29T01:41:53.050Z,98002.92
2018-04-29T01:44:21.190Z,98000.15
2018-04-29T01:46:49.318Z,98002.42
2018-04-29T01:49:17.445Z,97997.11
2018-04-29T01:51:45.626Z,97999.23
2018-04-29T01:54:13.711Z,97999.89
2018-04-29T01:56:41.859Z,98001.51
2018-04-29T01:59:09.982Z,97996.46
2018-04-29T02:01:38.110Z,97996.72
2018-04-29T02:04:06.262Z,97993.40
2018-04-29T02:06:34.409Z,97995.14
2018-04-29T02:09:02.518Z,97994.34
2018-04-29T02:11:30.667Z,97997.82
2018-04-29T02:13:58.792Z,97993.26
2018-04-29T02:16:26.925Z,97998.39
2018-04-29T02:18:55.063Z,97990.14
2018-04-29T02:21:23.766Z,97989.92
2018-04-29T02:23:52.613Z,97983.72
2018-04-29T02:26:20.759Z,97982.20
2018-04-29T02:28:48.895Z,97982.95
2018-04-29T02:31:17.034Z,97982.70
2018-04-29T02:33:45.166Z,97981.52
2018-04-29T02:36:13.291Z,97977.28
2018-04-29T02:38:41.422Z,97979.61
2018-04-29T02:41:09.547Z,97980.97
2018-04-29T02:43:37.700Z,97975.88
2018-04-29T02:46:05.818Z,97971.48
2018-04-29T02:48:33.955Z,97968.30
2018-04-29T02:51:02.071Z,97966.58
2018-04-29T02:53:30.206Z,97966.32
2018-04-29T02:55:58.352Z,97958.71
2018-04-29T02:58:26.480Z,97952.72
2018-04-29T03:00:54.633Z,97957.02
2018-04-29T03:03:22.762Z,97948.34
2018-04-29T03:05:50.890Z,97955.82
2018-04-29T03:08:19.025Z,97951.30
2018-04-29T03:10:47.163Z,97949.80
2018-04-29T03:13:15.368Z,97950.48
2018-04-29T03:15:43.502Z,97954.23
2018-04-29T03:18:11.645Z,97958.88
2018-04-29T03:20:39.767Z,97948.60
2018-04-29T03:23:07.916Z,97952.38
2018-04-29T03:25:36.050Z,97948.92
2018-04-29T03:28:04.202Z,97948.78
2018-04-29T03:30:32.388Z,97954.03
2018-04-29T03:33:00.519Z,97954.17
2018-04-29T03:35:28.643Z,97952.17
2018-04-29T03:37:56.798Z,97949.78
2018-04-29T03:40:24.919Z,97950.20
2018-04-29T03:42:53.061Z,97948.19
2018-04-29T03:45:21.189Z,97951.39
2018-04-29T03:47:49.332Z,97949.13
2018-04-29T03:50:17.466Z,97957.96
2018-04-29T03:52:45.593Z,97959.95
2018-04-29T03:55:13.738Z,97963.58
2018-04-29T03:57:53.693Z,97961.70
2018-04-29T04:00:33.490Z,97952.91
2018-04-29T04:03:13.626Z,97959.98
2018-04-29T04:05:41.762Z,97964.37
2018-04-29T04:08:09.897Z,97967.42
2018-04-29T04:10:38.031Z,97975.58
2018-04-29T04:13:06.235Z,97974.63
2018-04-29T04:15:34.354Z,97972.86
2018-04-29T04:18:02.485Z,97969.50
2018-04-29T04:20:30.623Z,97971.88
2018-04-29T04:22:58.764Z,97974.67
2018-04-29T04:25:26.912Z,97978.00
2018-04-29T04:27:55.046Z,97988.95
2018-04-29T04:30:23.205Z,97988.53
2018-04-29T04:32:51.343Z,97995.08
2018-04-29T04:35:19.495Z,97995.56
2018-04-29T04:37:47.611Z,97993.09
2018-04-29T04:40:15.807Z,98003.89
2018-04-29T04:42:43.904Z,98005.06
2018-04-29T04:45:12.043Z,98009.98
2018-04-29T04:47:40.196Z,98002.42
2018-04-29T04:50:08.337Z,98007.71
2018-04-29T04:52:36.470Z,97998.63
2018-04-29T04:55:04.612Z,98003.53
2018-04-29T04:57:32.740Z,98003.15
2018-04-29T05:00:00.864Z,98002.09
2018-04-29T05:02:29.015Z,98010.72
2018-04-29T05:04:57.135Z,98016.52
2018-04-29T05:07:25.287Z,98013.68
2018-04-29T05:09:53.405Z,98021.23
2018-04-29T05:12:21.535Z,98009.63
2018-04-29T05:14:49.667Z,98020.11
2018-04-29T05:17:17.790Z,98020.66
2018-04-29T05:19:45.928Z,98023.09
2018-04-29T05:22:14.132Z,98018.47
2018-04-29T05:24:42.195Z,98019.00
2018-04-29T05:27:10.781Z,98021.80
2018-04-29T05:29:38.933Z,98018.54
2018-04-29T05:32:07.049Z,98022.84
2018-04-29T05:34:35.175Z,98026.45
2018-04-29T05:37:03.304Z,98022.78
2018-04-29T05:39:31.442Z,98019.89
2018-04-29T05:41:59.575Z,98020.55
2018-04-29T05:44:27.706Z,98019.41
2018-04-29T05:46:55.855Z,98015.67
2018-04-29T05:49:23.988Z,98024.45
2018-04-29T05:51:52.145Z,98029.66
2018-04-29T05:54:20.289Z,98034.46
2018-04-29T05:56:48.450Z,98034.55
2018-04-29T05:59:16.600Z,98028.00
2018-04-29T06:01:44.715Z,98030.68
2018-04-29T06:04:12.863Z,98026.27
2018-04-29T06:06:41.040Z,98034.53
2018-04-29T06:09:09.872Z,97998.80
2018-04-29T06:11:37.948Z,98033.78
2018-04-29T06:14:06.144Z,98038.38
2018-04-29T06:16:35.102Z,98036.48
2018-04-29T06:19:03.232Z,98039.46
2018-04-29T06:21:31.376Z,98038.94
2018-04-29T06:23:59.514Z,98039.61
2018-04-29T06:26:27.649Z,98034.67
2018-04-29T06:28:55.793Z,98032.90
2018-04-29T06:31:23.916Z,98035.11
2018-04-29T06:33:52.071Z,98030.86
2018-04-29T06:36:20.208Z,98037.05
2018-04-29T06:38:48.350Z,98030.19
2018-04-29T06:41:16.499Z,98031.12
2018-04-29T06:43:44.629Z,98034.77
2018-04-29T06:46:12.795Z,98028.55
2018-04-29T06:48:40.945Z,98029.44
2018-04-29T06:51:09.072Z,98037.44
2018-04-29T06:53:37.229Z,98036.78
2018-04-29T06:56:05.359Z,98037.16
2018-04-29T06:58:33.480Z,98036.80
2018-04-29T07:01:01.606Z,98036.43
2018-04-29T07:03:29.780Z,98032.95
2018-04-29T07:05:57.903Z,98038.25
2018-04-29T07:08:26.053Z,98032.27
2018-04-29T07:10:54.191Z,98035.81
2018-04-29T07:13:22.327Z,98031.23
2018-04-29T07:15:50.461Z,98037.70
2018-04-29T07:18:18.743Z,98034.17
2018-04-29T07:20:46.880Z,98034.01
2018-04-29T07:23:15.031Z,98037.13
2018-04-29T07:25:43.167Z,98033.38
2018-04-29T07:28:11.342Z,98031.51
2018-04-29T07:30:39.479Z,98031.95
2018-04-29T07:33:07.608Z,98037.36
2018-04-29T07:35:35.756Z,98039.16
2018-04-29T07:38:03.887Z,98037.67
2018-04-29T07:40:32.026Z,98036.42
2018-04-29T07:43:00.174Z,98039.38
2018-04-29T07:45:28.324Z,98038.11
2018-04-29T07:47:56.484Z,98036.73
2018-04-29T07:50:24.625Z,98039.45
2018-04-29T07:52:52.751Z,98046.97
2018-04-29T07:55:20.909Z,98047.02
2018-04-29T07:57:49.037Z,98045.86
2018-04-29T08:00:17.171Z,98045.86
2018-04-29T08:02:45.316Z,98044.89
2018-04-29T08:05:13.530Z,98048.83
2018-04-29T08:07:41.680Z,98043.70
2018-04-29T08:10:09.846Z,98042.53
2018-04-29T08:12:37.969Z,98039.66
2018-04-29T08:15:06.193Z,98040.75
2018-04-29T08:17:34.313Z,98035.77
2018-04-29T08:20:02.435Z,98036.22
2018-04-29T08:22:30.563Z,98035.55
2018-04-29T08:24:58.730Z,98044.92
2018-04-29T08:27:26.887Z,98044.61
2018-04-29T08:29:55.071Z,98046.62
2018-04-29T08:32:23.204Z,98036.77
2018-04-29T08:34:51.327Z,98038.90
2018-04-29T08:37:19.447Z,98038.52
2018-04-29T08:39:47.639Z,98041.58
2018-04-29T08:42:15.763Z,98040.26
2018-04-29T08:44:43.882Z,98032.41
2018-04-29T08:47:12.081Z,98035.81
2018-04-29T08:49:40.176Z,98031.02
2018-04-29T08:52:08.290Z,98031.16
2018-04-29T08:54:36.456Z,98022.70
2018-04-29T08:57:04.607Z,98024.83
2018-04-29T08:59:32.766Z,98022.31
2018-04-29T09:02:00.924Z,98026.64
2018-04-29T09:04:29.063Z,98020.63
2018-04-29T09:06:57.229Z,98023.27
2018-04-29T09:09:25.404Z,98024.88
2018-04-29T09:11:53.540Z,98026.37
2018-04-29T09:14:21.667Z,98019.26
2018-04-29T09:16:49.836Z,98022.88
2018-04-29T09:19:17.971Z,98016.11
2018-04-29T09:21:46.099Z,98009.99
2018-04-29T09:24:14.233Z,98003.07
2018-04-29T09:26:42.527Z,97998.97
2018-04-29T09:29:10.676Z,98007.06
2018-04-29T09:31:38.800Z,98002.02
2018-04-29T09:34:06.941Z,98005.59
2018-04-29T09:36:35.071Z,98001.47
2018-04-29T09:39:03.210Z,97995.64
2018-04-29T09:41:32.319Z,98000.47
2018-04-29T09:44:00.483Z,97994.91
2018-04-29T09:46:28.611Z,97992.22
2018-04-29T09:48:56.784Z,97988.28
2018-04-29T09:51:24.940Z,97990.17
2018-04-29T09:53:53.095Z,97986.75
2018-04-29T09:56:21.239Z,97988.53
2018-04-29T09:58:49.399Z,97987.59
2018-04-29T10:01:25.011Z,97979.70
2018-04-29T10:03:53.157Z,97974.53
2018-04-29T10:06:21.307Z,97973.42
2018-04-29T10:08:49.444Z,97970.50
2018-04-29T10:11:17.559Z,97957.66
2018-04-29T10:13:45.717Z,97954.66
2018-04-29T10:18:48.344Z,97946.95
2018-04-29T10:21:16.452Z,97949.11
2018-04-29T10:23:44.585Z,97938.19
2018-04-29T10:26:12.709Z,97939.44
2018-04-29T10:28:40.839Z,97930.84
2018-04-29T10:31:09.998Z,97928.98
2018-04-29T10:33:38.124Z,97925.30
2018-04-29T10:36:06.262Z,97918.34
2018-04-29T10:38:34.395Z,97917.18
2018-04-29T10:41:02.594Z,97920.37
2018-04-29T10:43:30.675Z,97910.03
2018-04-29T10:45:58.793Z,97907.50
2018-04-29T10:48:26.914Z,97906.84
2018-04-29T10:50:55.065Z,97903.69
2018-04-29T10:53:23.277Z,97894.77
2018-04-29T10:55:51.422Z,97890.84
2018-04-29T10:58:19.556Z,97890.58
2018-04-29T11:00:47.707Z,97889.09
2018-04-29T11:03:15.839Z,97884.19
2018-04-29T11:05:43.977Z,97883.15
2018-04-29T11:08:12.119Z,97876.42
2018-04-29T11:10:40.279Z,97883.32
2018-04-29T11:13:08.400Z,97872.30
2018-04-29T11:15:36.558Z,97868.77
2018-04-29T11:18:05.394Z,97863.89
2018-04-29T11:20:33.510Z,97856.12
2018-04-29T11:23:01.659Z,97861.47
2018-04-29T11:25:29.807Z,97861.86
2018-04-29T11:27:57.941Z,97855.72
2018-04-29T11:30:26.101Z,97854.39
2018-04-29T11:32:54.227Z,97846.31
2018-04-29T11:35:22.376Z,97840.98
2018-04-29T11:37:50.505Z,97833.75
2018-04-29T11:40:18.660Z,97834.91
2018-04-29T11:42:46.803Z,97839.28
2018-04-29T11:45:14.966Z,97830.64
2018-04-29T11:47:43.115Z,97826.70
2018-04-29T11:50:11.272Z,97818.06
2018-04-29T11:52:39.401Z,97822.17
2018-04-29T11:55:07.557Z,97820.03
2018-04-29T11:57:35.677Z,97817.88
2018-04-29T12:00:03.842Z,97816.70
2018-04-29T12:02:31.959Z,97818.86
2018-04-29T12:05:00.111Z,97815.71
2018-04-29T12:07:28.282Z,97816.70
2018-04-29T12:09:56.463Z,97813.73
2018-04-29T12:12:24.554Z,97811.20
2018-04-29T12:14:52.724Z,97807.27
2018-04-29T12:17:20.845Z,97805.89
2018-04-29T12:19:49.025Z,97797.06
2018-04-29T12:22:17.159Z,97793.13
2018-04-29T12:24:45.299Z,97790.21
2018-04-29T12:27:13.433Z,97790.77
2018-04-29T12:29:41.554Z,97791.33
2018-04-29T12:32:09.701Z,97792.72
2018-04-29T12:34:37.841Z,97789.80
2018-04-29T12:37:06.079Z,97778.59
2018-04-29T12:39:34.220Z,97772.31
2018-04-29T12:42:02.362Z,97773.89
2018-04-29T12:44:30.478Z,97773.83
2018-04-29T12:46:58.611Z,97772.47
2018-04-29T12:49:26.749Z,97759.14
2018-04-29T12:51:54.889Z,97762.86
2018-04-29T12:54:23.814Z,97755.41
2018-04-29T12:56:51.941Z,97747.34
2018-04-29T12:59:20.063Z,97750.47
2018-04-29T13:01:48.189Z,97740.45
2018-04-29T13:04:16.327Z,97737.13
2018-04-29T13:06:44.877Z,97739.22
2018-04-29T13:09:12.994Z,97733.60
2018-04-29T13:11:41.133Z,97730.19
2018-04-29T13:14:09.260Z,97727.41
2018-04-29T13:16:37.375Z,97721.91
2018-04-29T13:19:05.536Z,97716.00
2018-04-29T13:21:33.652Z,97708.12
2018-04-29T13:24:01.786Z,97706.64
2018-04-29T13:26:29.908Z,97696.47
2018-04-29T13:28:58.037Z,97693.77
2018-04-29T13:31:26.166Z,97694.25
2018-04-29T13:33:54.304Z,97689.53
2018-04-29T13:36:22.430Z,97693.84
2018-04-29T13:38:50.613Z,97688.29
2018-04-29T13:41:18.732Z,97683.94
2018-04-29T13:43:46.854Z,97681.56
2018-04-29T13:46:15.026Z,97669.70
2018-04-29T13:48:43.149Z,97666.59
2018-04-29T13:51:11.279Z,97665.66
2018-04-29T13:53:39.398Z,97660.53
2018-04-29T13:56:07.520Z,97663.94
2018-04-29T13:58:35.658Z,97661.77
2018-04-29T14:01:03.794Z,97658.59
2018-04-29T14:03:31.943Z,97653.35
2018-04-29T14:06:00.097Z,97644.25
2018-04-29T14:08:28.223Z,97650.97
2018-04-29T14:10:56.366Z,97646.94
2018-04-29T14:13:24.479Z,97641.09
2018-04-29T14:15:52.608Z,97642.50
2018-04-29T14:18:20.802Z,97638.40
2018-04-29T14:20:48.944Z,97638.77
2018-04-29T14:23:17.079Z,97634.86
2018-04-29T14:25:45.207Z,97638.66
2018-04-29T14:28:13.340Z,97633.42
2018-04-29T14:30:41.463Z,97632.23
2018-04-29T14:33:09.987Z,97625.58
2018-04-29T14:35:38.137Z,97616.27
2018-04-29T14:38:06.268Z,97608.56
2018-04-29T14:40:34.529Z,97611.27
2018-04-29T14:43:02.656Z,97607.36
2018-04-29T14:45:31.028Z,97601.89
2018-04-29T14:47:59.162Z,97599.94
2018-04-29T14:50:27.308Z,97594.04
2018-04-29T14:52:55.457Z,97594.27
2018-04-29T14:55:23.638Z,97590.39
2018-04-29T14:57:51.757Z,97595.37
2018-04-29T15:00:19.951Z,97594.03
2018-04-29T15:02:48.076Z,97591.12
2018-04-29T15:05:16.215Z,97588.00
2018-04-29T15:07:44.360Z,97585.07
2018-04-29T15:10:12.666Z,97581.75
2018-04-29T15:12:40.779Z,97580.95
2018-04-29T15:15:08.909Z,97583.08
2018-04-29T15:17:37.076Z,97579.58
2018-04-29T15:20:05.221Z,97575.47
2018-04-29T15:22:33.358Z,97568.38
2018-04-29T15:25:01.536Z,97564.48
2018-04-29T15:27:29.666Z,97565.62
2018-04-29T15:29:57.798Z,97558.73
2018-04-29T15:32:25.984Z,97551.48
2018-04-29T15:34:54.520Z,97551.09
2018-04-29T15:37:24.043Z,97546.59
2018-04-29T15:39:52.171Z,97549.11
2018-04-29T15:42:20.301Z,97544.00
2018-04-29T15:44:48.410Z,97539.72
2018-04-29T15:47:16.534Z,97546.80
2018-04-29T15:49:44.663Z,97540.70
2018-04-29T15:52:12.795Z,97541.29
2018-04-29T15:54:40.909Z,97542.25
2018-04-29T15:57:09.880Z,97533.83
2018-04-29T15:59:38.011Z,97536.96
2018-04-29T16:02:06.136Z,97537.78
2018-04-29T16:04:34.257Z,97535.25
2018-04-29T16:07:02.411Z,97530.75
2018-04-29T16:09:30.551Z,97531.14
2018-04-29T16:11:58.669Z,97533.06
2018-04-29T16:14:26.833Z,97527.98
2018-04-29T16:16:54.981Z,97523.66
2018-04-29T16:19:23.105Z,97523.84
2018-04-29T16:21:51.231Z,97518.95
2018-04-29T16:24:19.424Z,97518.96
2018-04-29T16:26:47.606Z,97510.32
2018-04-29T16:29:15.742Z,97517.39
2018-04-29T16:31:43.891Z,97507.00
2018-04-29T16:34:12.068Z,97511.11
2018-04-29T16:36:40.201Z,97508.55
2018-04-29T16:39:08.354Z,97509.95
2018-04-29T16:41:36.482Z,97502.67
2018-04-29T16:44:04.685Z,97507.95
2018-04-29T16:46:32.855Z,97500.27
2018-04-29T16:49:01.034Z,97498.36
2018-04-29T16:51:29.185Z,97496.98
2018-04-29T16:53:57.339Z,97498.71
2018-04-29T16:56:25.470Z,97498.48
2018-04-29T16:58:53.597Z,97501.03
2018-04-29T17:01:21.754Z,97495.31
2018-04-29T17:03:49.867Z,97494.92
2018-04-29T17:06:18.012Z,97492.30
2018-04-29T17:08:46.180Z,97489.50
2018-04-29T17:11:14.312Z,97500.56
2018-04-29T17:13:42.443Z,97488.98
2018-04-29T17:16:10.589Z,97492.27
2018-04-29T17:18:38.761Z,97489.95
2018-04-29T17:21:06.990Z,97489.59
2018-04-29T17:23:35.104Z,97491.06
2018-04-29T17:26:03.248Z,97488.64
2018-04-29T17:28:31.363Z,97492.86
2018-04-29T17:30:59.498Z,97487.81
2018-04-29T17:33:27.648Z,97490.52
2018-04-29T17:35:55.770Z,97491.80
2018-04-29T17:38:23.902Z,97495.75
2018-04-29T17:40:52.021Z,97495.31
2018-04-29T17:43:20.157Z,97494.27
2018-04-29T17:45:48.275Z,97498.95
2018-04-29T17:48:16.413Z,97503.62
2018-04-29T17:50:44.538Z,97508.83
2018-04-29T17:53:12.748Z,97505.83
2018-04-29T17:55:40.865Z,97506.98
2018-04-29T17:58:09.003Z,97503.18
2018-04-29T18:00:37.128Z,97508.34
2018-04-29T18:03:05.313Z,97512.52
2018-04-29T18:05:33.444Z,97516.53
2018-04-29T18:08:01.611Z,97517.28
2018-04-29T18:10:30.098Z,97525.96
2018-04-29T18:12:58.274Z,97520.29
2018-04-29T18:15:26.404Z,97530.40
2018-04-29T18:17:54.531Z,97532.91
2018-04-29T18:20:22.655Z,97527.93
2018-04-29T18:22:50.825Z,97535.23
2018-04-29T18:25:18.977Z,97531.81
2018-04-29T18:27:47.206Z,97538.19
2018-04-29T18:30:15.261Z,97540.86
2018-04-29T18:32:43.805Z,97542.62
2018-04-29T18:35:12.055Z,97548.55
2018-04-29T18:37:40.222Z,97554.45
2018-04-29T18:40:08.375Z,97557.23
2018-04-29T18:42:36.505Z,97559.23
2018-04-29T18:45:04.667Z,97553.47
2018-04-29T18:47:32.805Z,97562.97
2018-04-29T18:50:00.993Z,97567.31
2018-04-29T18:52:29.139Z,97570.60
2018-04-29T18:54:57.327Z,97573.92
2018-04-29T18:57:25.500Z,97574.11
2018-04-29T18:59:53.768Z,97570.48
2018-04-29T19:02:21.984Z,97574.06
2018-04-29T19:04:50.165Z,97573.97
2018-04-29T19:07:18.342Z,97576.52
2018-04-29T19:09:46.521Z,97579.22
2018-04-29T19:12:14.719Z,97583.70
2018-04-29T19:14:42.907Z,97578.75
2018-04-29T19:17:11.097Z,97577.46
2018-04-29T19:19:39.282Z,97573.84
2018-04-29T19:22:07.415Z,97576.73
2018-04-29T19:24:35.614Z,97570.76
2018-04-29T19:27:03.810Z,97579.16
2018-04-29T19:29:31.991Z,97573.91
2018-04-29T19:32:00.182Z,97575.75
2018-04-29T19:34:28.309Z,97577.65
2018-04-29T19:36:56.443Z,97581.99
2018-04-29T19:39:27.388Z,97580.38
2018-04-29T19:41:55.502Z,97576.73
2018-04-29T19:44:23.627Z,97586.20
2018-04-29T19:46:51.748Z,97589.56
2018-04-29T19:49:19.875Z,97587.77
2018-04-29T19:51:48.565Z,97588.20
2018-04-29T19:54:16.747Z,97587.93
2018-04-29T19:56:44.865Z,97585.33
2018-04-29T19:59:13.003Z,97584.84
2018-04-29T20:01:41.131Z,97583.95
2018-04-29T20:04:09.264Z,97585.58
2018-04-29T20:06:37.378Z,97578.80
2018-04-29T20:09:05.590Z,97581.53
2018-04-29T20:11:33.844Z,97579.17
2018-04-29T20:14:01.871Z,97581.67
2018-04-29T20:16:29.991Z,97584.30
2018-04-29T20:18:58.112Z,97580.08
2018-04-29T20:21:26.243Z,97582.64
2018-04-29T20:23:54.472Z,97579.69
2018-04-29T20:26:22.504Z,97575.98
2018-04-29T20:28:50.634Z,97572.78
2018-04-29T20:31:18.762Z,97573.25
2018-04-29T20:33:46.900Z,97566.70
2018-04-29T20:36:15.030Z,97573.92
2018-04-29T20:38:43.165Z,97570.25
2018-04-29T20:41:11.298Z,97563.25
2018-04-29T20:43:39.415Z,97568.14
2018-04-29T20:46:07.550Z,97560.02
2018-04-29T20:48:35.765Z,97558.91
2018-04-29T20:51:04.189Z,97560.97
2018-04-29T20:53:32.330Z,97558.41
2018-04-29T20:56:00.456Z,97552.63
2018-04-29T20:58:28.630Z,97558.64
2018-04-29T21:00:56.772Z,97545.21
2018-04-29T21:03:24.899Z,97545.73
2018-04-29T21:05:53.023Z,97550.50
2018-04-29T21:08:21.149Z,97553.50
2018-04-29T21:10:49.265Z,97549.25
2018-04-29T21:13:17.430Z,97558.39
2018-04-29T21:15:45.543Z,97553.22
2018-04-29T21:18:13.670Z,97546.45
2018-04-29T21:20:41.800Z,97533.17
2018-04-29T21:23:10.537Z,97542.08
2018-04-29T21:25:38.662Z,97534.56
2018-04-29T21:28:06.791Z,97526.01
2018-04-29T21:30:35.526Z,97531.21
2018-04-29T21:33:03.642Z,97527.17
2018-04-29T21:35:31.782Z,97528.55
2018-04-29T21:37:59.939Z,97528.93
2018-04-29T21:40:28.035Z,97528.08
2018-04-29T21:42:56.955Z,97524.47
2018-04-29T21:45:25.093Z,97515.59
2018-04-29T21:47:53.247Z,97515.20
2018-04-29T21:50:21.371Z,97513.44
2018-04-29T21:52:49.495Z,97520.59
2018-04-29T21:55:17.607Z,97524.14
2018-04-29T21:57:45.754Z,97517.73
2018-04-29T22:00:13.881Z,97516.63
2018-04-29T22:02:41.991Z,97520.77
2018-04-29T22:05:10.108Z,97515.03
2018-04-29T22:07:38.232Z,97519.53
2018-04-29T22:10:06.372Z,97510.58
2018-04-29T22:12:34.490Z,97507.86
2018-04-29T22:15:02.634Z,97503.79
2018-04-29T22:17:30.763Z,97494.09
2018-04-29T22:19:59.144Z,97503.17
2018-04-29T22:22:28.042Z,97504.15
2018-04-29T22:24:56.170Z,97499.08
2018-04-29T22:27:24.292Z,97494.50
2018-04-29T22:29:52.422Z,97488.41
2018-04-29T22:32:20.544Z,97498.56
2018-04-29T22:34:48.665Z,97501.66
2018-04-29T22:37:16.869Z,97489.78
2018-04-29T22:39:44.910Z,97477.24
2018-04-29T22:42:13.030Z,97481.59
2018-04-29T22:44:41.152Z,97479.91
2018-04-29T22:47:09.276Z,97482.22
2018-04-29T22:49:37.414Z,97487.31
2018-04-29T22:52:05.535Z,97489.19
2018-04-29T22:54:33.755Z,97485.09
2018-04-29T22:57:01.891Z,97483.24
2018-04-29T22:59:30.021Z,97483.57
2018-04-29T23:01:58.145Z,97477.79
2018-04-29T23:04:26.273Z,97473.59
2018-04-29T23:06:54.401Z,97475.92
2018-04-29T23:09:22.547Z,97466.50
2018-04-29T23:11:50.682Z,97466.39
2018-04-29T23:14:18.806Z,97462.19
2018-04-29T23:16:46.928Z,97463.87
2018-04-29T23:19:15.059Z,97461.10
2018-04-29T23:21:43.185Z,97466.22
2018-04-29T23:24:11.311Z,97464.42
2018-04-29T23:26:39.439Z,97453.09
2018-04-29T23:29:07.606Z,97453.88
2018-04-29T23:31:35.722Z,97454.58
2018-04-29T23:34:03.876Z,97449.20
2018-04-29T23:36:32.015Z,97435.87
2018-04-29T23:39:00.148Z,97428.36
2018-04-29T23:41:28.280Z,97426.12
2018-04-29T23:43:56.415Z,97426.20
2018-04-29T23:46:24.550Z,97427.22
2018-04-29T23:48:52.810Z,97423.61
2018-04-29T23:51:20.939Z,97414.66
2018-04-29T23:53:49.072Z,97422.16
2018-04-29T23:56:17.232Z,97406.27
2018-04-29T23:58:45.380Z,97406.39
